createdAt,value
2023-03-07T00:00:16.541Z,4.72
2023-03-07T00:02:57.148Z,4.79
2023-03-07T00:05:29.498Z,4.89
2023-03-07T00:08:00.931Z,4.84
2023-03-07T00:10:30.668Z,4.98
2023-03-07T00:13:00.891Z,4.78
2023-03-07T00:15:31.300Z,4.64
2023-03-07T00:18:03.624Z,4.65
2023-03-07T00:20:33.944Z,4.43
2023-03-07T00:23:02.190Z,4.56
2023-03-07T00:25:31.829Z,4.39
2023-03-07T00:28:05.537Z,4.25
2023-03-07T00:30:34.103Z,4.43
2023-03-07T00:33:07.200Z,4.21
2023-03-07T00:35:38.199Z,4.47
2023-03-07T00:38:06.660Z,4.28
2023-03-07T00:40:42.257Z,4.31
2023-03-07T00:43:15.126Z,4.44
2023-03-07T00:45:44.091Z,4.18
2023-03-07T00:48:18.611Z,4.12
2023-03-07T00:50:51.053Z,4.08
2023-03-07T00:53:20.371Z,3.84
2023-03-07T00:55:56.947Z,3.99
2023-03-07T00:58:32.363Z,3.96
2023-03-07T01:01:02.212Z,3.77
2023-03-07T01:03:33.316Z,3.98
2023-03-07T01:09:12.254Z,3.88
2023-03-07T01:11:40.267Z,3.89
2023-03-07T01:14:12.685Z,3.76
2023-03-07T01:16:41.277Z,3.81
2023-03-07T01:19:12.392Z,3.94
2023-03-07T01:21:41.895Z,3.78
2023-03-07T01:24:14.023Z,3.78
2023-03-07T01:26:43.126Z,3.53
2023-03-07T01:29:17.201Z,3.62
2023-03-07T01:31:47.866Z,3.65
2023-03-07T01:34:19.738Z,3.73
2023-03-07T01:36:47.941Z,3.77
2023-03-07T01:39:17.939Z,3.58
2023-03-07T01:41:49.664Z,3.62
2023-03-07T01:44:21.857Z,3.62
2023-03-07T01:46:56.675Z,3.56
2023-03-07T01:49:35.115Z,3.67
2023-03-07T01:52:08.692Z,3.63
2023-03-07T01:54:41.235Z,3.78
2023-03-07T01:57:12.068Z,3.76
2023-03-07T01:59:49.719Z,3.61
2023-03-07T02:02:22.694Z,3.63
2023-03-07T02:04:57.904Z,3.50
2023-03-07T02:07:33.961Z,3.53
2023-03-07T02:10:07.808Z,3.59
2023-03-07T02:12:36.371Z,3.58
2023-03-07T02:15:11.319Z,3.69
2023-03-07T02:17:48.985Z,3.65
2023-03-07T02:20:33.341Z,3.70
2023-03-07T02:23:05.716Z,3.69
2023-03-07T02:25:44.444Z,3.75
2023-03-07T02:28:22.412Z,3.85
2023-03-07T02:31:00.220Z,3.68
2023-03-07T02:33:28.835Z,3.74
2023-03-07T02:36:01.450Z,3.91
2023-03-07T02:38:39.270Z,3.91
2023-03-07T02:41:11.544Z,3.98
2023-03-07T02:43:42.073Z,3.96
2023-03-07T02:46:12.318Z,3.99
2023-03-07T02:48:46.185Z,3.94
2023-03-07T02:51:16.776Z,4.06
2023-03-07T02:53:49.163Z,4.24
2023-03-07T02:56:17.994Z,4.05
2023-03-07T02:58:50.057Z,4.06
2023-03-07T03:01:19.669Z,3.93
2023-03-07T03:03:47.706Z,4.17
2023-03-07T03:06:16.036Z,4.19
2023-03-07T03:08:44.042Z,4.06
2023-03-07T03:11:12.834Z,4.09
2023-03-07T03:13:44.808Z,4.23
2023-03-07T03:16:15.296Z,4.33
2023-03-07T03:18:47.023Z,4.14
2023-03-07T03:21:16.484Z,4.27
2023-03-07T03:23:44.716Z,4.25
2023-03-07T03:26:13.306Z,4.28
2023-03-07T03:28:43.620Z,4.10
2023-03-07T03:31:15.831Z,4.16
2023-03-07T03:33:45.516Z,4.27
2023-03-07T03:36:17.664Z,4.12
2023-03-07T03:38:53.098Z,4.23
2023-03-07T03:41:21.640Z,4.10
2023-03-07T03:43:53.393Z,4.19
2023-03-07T03:46:25.796Z,4.24
2023-03-07T03:48:57.110Z,4.19
2023-03-07T03:51:26.109Z,4.00
2023-03-07T03:53:57.960Z,4.31
2023-03-07T03:56:27.869Z,4.35
2023-03-07T03:58:58.940Z,4.26
2023-03-07T04:01:30.333Z,4.32
2023-03-07T04:04:00.325Z,4.33
2023-03-07T04:06:40.883Z,4.32
2023-03-07T04:09:10.034Z,4.47
2023-03-07T04:11:38.069Z,4.31
2023-03-07T04:14:11.314Z,4.23
2023-03-07T04:16:41.789Z,4.50
2023-03-07T04:19:12.955Z,4.40
2023-03-07T04:21:42.510Z,4.44
2023-03-07T04:24:13.215Z,4.31
2023-03-07T04:26:44.591Z,4.55
2023-03-07T04:29:14.667Z,4.44
2023-03-07T04:31:44.507Z,4.53
2023-03-07T04:34:12.747Z,4.29
2023-03-07T04:36:41.667Z,4.35
2023-03-07T04:39:10.765Z,4.43
2023-03-07T04:41:40.243Z,4.59
2023-03-07T04:44:12.500Z,4.65
2023-03-07T04:46:45.361Z,4.47
2023-03-07T04:49:13.684Z,4.48
2023-03-07T04:51:44.206Z,4.59
2023-03-07T04:54:12.365Z,4.57
2023-03-07T04:56:41.256Z,4.72
2023-03-07T04:59:09.390Z,4.70
2023-03-07T05:01:40.708Z,4.74
2023-03-07T05:04:14.112Z,4.63
2023-03-07T05:06:44.000Z,4.66
2023-03-07T05:09:13.080Z,4.63
2023-03-07T05:11:42.584Z,4.65
2023-03-07T05:14:16.805Z,4.59
2023-03-07T05:16:49.449Z,4.55
2023-03-07T05:19:18.892Z,4.60
2023-03-07T05:21:50.249Z,4.70
2023-03-07T05:24:21.759Z,4.73
2023-03-07T05:26:54.497Z,4.66
2023-03-07T05:29:23.049Z,4.74
2023-03-07T05:32:00.294Z,4.59
2023-03-07T05:34:32.469Z,4.74
2023-03-07T05:37:01.781Z,4.78
2023-03-07T05:39:32.285Z,4.81
2023-03-07T05:42:00.117Z,4.83
2023-03-07T05:44:34.163Z,4.79
2023-03-07T05:47:04.293Z,4.79
2023-03-07T05:49:34.509Z,4.87
2023-03-07T05:52:04.866Z,4.78
2023-03-07T05:54:40.369Z,4.86
2023-03-07T05:57:17.923Z,4.85
2023-03-07T05:59:47.956Z,4.90
2023-03-07T06:02:17.451Z,4.79
2023-03-07T06:05:14.262Z,4.88
2023-03-07T06:07:44.312Z,4.83
2023-03-07T06:10:17.926Z,4.94
2023-03-07T06:12:47.225Z,4.82
2023-03-07T06:15:24.454Z,4.97
2023-03-07T06:17:53.637Z,4.90
2023-03-07T06:20:26.696Z,4.79
2023-03-07T06:22:54.554Z,4.59
2023-03-07T06:25:22.917Z,4.77
2023-03-07T06:27:53.125Z,4.94
2023-03-07T06:30:26.339Z,4.86
2023-03-07T06:32:55.300Z,4.80
2023-03-07T06:35:35.836Z,4.83
2023-03-07T06:38:06.478Z,4.86
2023-03-07T06:40:35.414Z,4.83
2023-03-07T06:43:03.957Z,4.92
2023-03-07T06:45:35.139Z,5.03
2023-03-07T06:48:06.749Z,5.14
2023-03-07T06:50:39.745Z,4.86
2023-03-07T06:53:11.750Z,4.94
2023-03-07T06:55:41.868Z,5.07
2023-03-07T06:58:13.473Z,4.95
2023-03-07T07:00:41.758Z,5.05
2023-03-07T07:03:13.842Z,5.10
2023-03-07T07:05:51.361Z,5.02
2023-03-07T07:08:20.046Z,4.90
2023-03-07T07:10:51.061Z,5.09
2023-03-07T07:13:22.470Z,4.96
2023-03-07T07:15:51.035Z,5.04
2023-03-07T07:18:20.465Z,5.06
2023-03-07T07:20:58.268Z,5.12
2023-03-07T07:23:30.221Z,5.15
2023-03-07T07:26:00.678Z,5.12
2023-03-07T07:28:30.168Z,5.10
2023-03-07T07:31:05.709Z,5.13
2023-03-07T07:33:50.031Z,5.07
2023-03-07T07:36:24.994Z,5.20
2023-03-07T07:38:58.196Z,5.47
2023-03-07T07:41:27.502Z,5.14
2023-03-07T07:43:59.072Z,5.47
2023-03-07T07:46:31.043Z,5.21
2023-03-07T07:49:01.498Z,5.32
2023-03-07T07:54:26.929Z,5.19
2023-03-07T07:57:04.201Z,5.49
2023-03-07T07:59:35.525Z,5.27
2023-03-07T08:02:03.834Z,5.47
2023-03-07T08:04:38.773Z,5.50
2023-03-07T08:07:16.210Z,5.49
2023-03-07T08:09:45.361Z,5.81
2023-03-07T08:12:17.345Z,5.63
2023-03-07T08:14:47.357Z,5.73
2023-03-07T08:17:16.849Z,5.76
2023-03-07T08:19:46.724Z,5.80
2023-03-07T08:22:19.848Z,5.77
2023-03-07T08:24:51.451Z,5.60
2023-03-07T08:27:21.164Z,5.83
2023-03-07T08:29:52.004Z,6.03
2023-03-07T08:32:24.945Z,6.41
2023-03-07T08:35:02.056Z,6.01
2023-03-07T08:37:32.744Z,6.11
2023-03-07T08:40:03.279Z,6.24
2023-03-07T08:42:34.842Z,6.23
2023-03-07T08:45:04.625Z,6.43
2023-03-07T08:47:32.879Z,6.45
2023-03-07T08:50:01.064Z,6.36
2023-03-07T08:52:34.272Z,6.74
2023-03-07T08:55:04.270Z,6.34
2023-03-07T08:57:35.674Z,6.59
2023-03-07T09:00:15.909Z,6.81
2023-03-07T09:02:43.842Z,6.77
2023-03-07T09:05:15.898Z,7.04
2023-03-07T09:07:45.540Z,7.28
2023-03-07T09:10:17.226Z,7.18
2023-03-07T09:12:45.729Z,7.52
2023-03-07T09:15:21.562Z,7.45
2023-03-07T09:17:50.682Z,7.54
2023-03-07T09:20:20.939Z,7.54
2023-03-07T09:22:55.302Z,7.74
2023-03-07T09:25:24.709Z,7.35
2023-03-07T09:27:55.784Z,7.80
2023-03-07T09:30:25.470Z,7.71
2023-03-07T09:32:56.211Z,7.36
2023-03-07T09:35:26.340Z,7.98
2023-03-07T09:38:04.766Z,8.11
2023-03-07T09:40:35.188Z,8.10
2023-03-07T09:43:16.645Z,8.29
2023-03-07T09:46:01.020Z,8.22
2023-03-07T09:48:58.877Z,8.55
2023-03-07T09:51:32.720Z,8.51
2023-03-07T09:54:09.817Z,8.78
2023-03-07T09:56:43.383Z,8.27
2023-03-07T09:59:24.063Z,8.18
2023-03-07T10:01:59.590Z,7.86
2023-03-07T10:04:35.798Z,8.03
2023-03-07T10:07:07.189Z,8.22
2023-03-07T10:09:37.535Z,8.04
2023-03-07T10:12:40.770Z,8.49
2023-03-07T10:15:20.192Z,8.40
2023-03-07T10:18:16.112Z,8.01
2023-03-07T10:20:51.553Z,8.15
2023-03-07T10:23:46.928Z,8.17
2023-03-07T10:26:33.685Z,8.35
2023-03-07T10:29:22.714Z,8.24
2023-03-07T10:32:07.339Z,8.75
2023-03-07T10:34:46.501Z,9.02
2023-03-07T10:37:19.388Z,9.20
2023-03-07T10:39:54.298Z,8.70
2023-03-07T10:42:32.146Z,8.19
2023-03-07T10:45:00.370Z,8.68
2023-03-07T10:47:29.847Z,8.37
2023-03-07T10:50:12.979Z,8.41
2023-03-07T10:52:51.667Z,8.59
2023-03-07T10:55:46.856Z,8.29
2023-03-07T10:58:36.641Z,8.58
2023-03-07T11:01:31.067Z,8.82
2023-03-07T11:04:05.237Z,8.33
2023-03-07T11:06:40.659Z,8.34
2023-03-07T11:09:19.924Z,8.76
2023-03-07T11:11:59.110Z,8.75
2023-03-07T11:14:33.491Z,8.85
2023-03-07T11:17:06.766Z,8.71
2023-03-07T11:19:40.162Z,8.60
2023-03-07T11:22:28.799Z,8.66
2023-03-07T11:25:00.549Z,8.63
2023-03-07T11:27:36.070Z,8.68
2023-03-07T11:30:24.821Z,8.50
2023-03-07T11:33:11.673Z,8.77
2023-03-07T11:36:01.134Z,8.64
2023-03-07T11:38:41.282Z,8.78
2023-03-07T11:41:17.600Z,8.62
2023-03-07T11:43:58.901Z,8.90
2023-03-07T11:46:43.591Z,8.63
2023-03-07T11:49:39.368Z,8.79
2023-03-07T11:52:28.240Z,8.62
2023-03-07T11:55:06.936Z,8.81
2023-03-07T11:57:53.062Z,8.90
2023-03-07T12:00:36.307Z,8.63
2023-03-07T12:03:38.645Z,8.93
2023-03-07T12:06:35.483Z,8.84
2023-03-07T12:09:22.043Z,9.27
2023-03-07T12:12:13.521Z,9.01
2023-03-07T12:14:50.636Z,8.72
2023-03-07T12:17:32.680Z,9.07
2023-03-07T12:20:29.189Z,9.11
2023-03-07T12:23:11.416Z,9.34
2023-03-07T12:25:43.473Z,9.35
2023-03-07T12:28:31.125Z,9.28
2023-03-07T12:31:11.421Z,9.01
2023-03-07T12:33:56.149Z,9.36
2023-03-07T12:36:35.652Z,9.30
2023-03-07T12:39:18.017Z,9.34
2023-03-07T12:42:22.935Z,9.47
2023-03-07T12:45:00.058Z,9.26
2023-03-07T12:47:39.335Z,9.16
2023-03-07T12:50:22.625Z,8.92
2023-03-07T12:53:02.324Z,9.11
2023-03-07T12:55:41.435Z,9.41
2023-03-07T12:58:20.042Z,9.16
2023-03-07T13:00:56.402Z,9.13
2023-03-07T13:03:35.579Z,9.27
2023-03-07T13:06:05.335Z,9.07
2023-03-07T13:08:39.265Z,9.29
2023-03-07T13:11:15.359Z,9.41
2023-03-07T13:13:55.459Z,9.19
2023-03-07T13:16:41.694Z,9.20
2023-03-07T13:20:06.289Z,9.30
2023-03-07T13:22:59.115Z,9.11
2023-03-07T13:25:57.345Z,9.01
2023-03-07T13:28:41.892Z,9.10
2023-03-07T13:31:35.144Z,9.20
2023-03-07T13:34:41.544Z,9.10
2023-03-07T13:37:52.464Z,9.21
2023-03-07T13:40:56.574Z,9.26
2023-03-07T13:44:00.336Z,9.52
2023-03-07T13:46:45.730Z,9.24
2023-03-07T13:49:46.748Z,9.13
2023-03-07T13:52:38.250Z,9.35
2023-03-07T13:55:25.479Z,9.53
2023-03-07T13:58:02.267Z,9.28
2023-03-07T14:00:44.271Z,9.07
2023-03-07T14:03:29.569Z,9.55
2023-03-07T14:08:47.768Z,9.64
2023-03-07T14:11:24.595Z,9.68
2023-03-07T14:14:26.499Z,9.72
2023-03-07T14:17:09.026Z,10.09
2023-03-07T14:19:50.512Z,9.81
2023-03-07T14:22:31.613Z,9.76
2023-03-07T14:25:21.492Z,9.28
2023-03-07T14:27:58.861Z,9.54
2023-03-07T14:30:32.514Z,9.76
2023-03-07T14:33:03.080Z,9.26
2023-03-07T14:35:52.066Z,9.17
2023-03-07T14:38:23.746Z,9.10
2023-03-07T14:41:34.332Z,9.28
2023-03-07T14:44:17.132Z,9.18
2023-03-07T14:47:01.498Z,8.72
2023-03-07T14:49:39.336Z,8.97
2023-03-07T14:52:30.857Z,9.04
2023-03-07T14:55:02.550Z,8.59
2023-03-07T14:57:37.805Z,8.69
2023-03-07T15:00:13.327Z,8.87
2023-03-07T15:02:53.366Z,8.86
2023-03-07T15:05:25.199Z,9.01
2023-03-07T15:07:54.963Z,9.01
2023-03-07T15:10:31.886Z,8.87
2023-03-07T15:13:01.645Z,8.76
2023-03-07T15:15:36.741Z,8.70
2023-03-07T15:18:14.882Z,8.77
2023-03-07T15:20:46.188Z,9.10
2023-03-07T15:23:24.333Z,9.11
2023-03-07T15:25:54.529Z,9.15
2023-03-07T15:28:28.424Z,9.00
2023-03-07T15:30:57.257Z,8.84
2023-03-07T15:33:31.489Z,8.78
2023-03-07T15:36:27.334Z,8.67
2023-03-07T15:39:24.588Z,9.07
2023-03-07T15:42:03.764Z,8.89
2023-03-07T15:44:34.279Z,8.86
2023-03-07T15:47:15.115Z,8.65
2023-03-07T15:49:48.098Z,8.62
2023-03-07T15:52:26.672Z,8.51
2023-03-07T15:54:59.622Z,8.43
2023-03-07T15:57:32.309Z,8.54
2023-03-07T16:00:08.002Z,8.48
2023-03-07T16:02:54.916Z,8.30
2023-03-07T16:05:37.158Z,8.44
2023-03-07T16:08:15.245Z,8.36
2023-03-07T16:10:50.627Z,8.28
2023-03-07T16:13:22.061Z,8.21
2023-03-07T16:16:06.903Z,8.36
2023-03-07T16:18:39.702Z,8.52
2023-03-07T16:21:14.610Z,8.36
2023-03-07T16:23:45.381Z,8.43
2023-03-07T16:26:16.293Z,8.43
2023-03-07T16:28:46.427Z,8.41
2023-03-07T16:31:21.084Z,8.28
2023-03-07T16:33:50.584Z,8.34
2023-03-07T16:36:21.130Z,8.47
2023-03-07T16:38:50.722Z,8.30
2023-03-07T16:41:20.618Z,8.39
2023-03-07T16:43:54.528Z,8.28
2023-03-07T16:46:23.965Z,8.05
2023-03-07T16:48:52.199Z,8.08
2023-03-07T16:51:26.294Z,7.98
2023-03-07T16:53:56.744Z,7.98
2023-03-07T16:56:29.744Z,7.93
2023-03-07T16:58:58.898Z,8.01
2023-03-07T17:01:27.355Z,8.03
2023-03-07T17:03:57.365Z,8.17
2023-03-07T17:06:38.520Z,8.08
2023-03-07T17:09:10.380Z,7.94
2023-03-07T17:11:48.662Z,8.01
2023-03-07T17:14:19.642Z,7.94
2023-03-07T17:16:50.066Z,7.69
2023-03-07T17:19:30.423Z,8.01
2023-03-07T17:22:06.967Z,7.77
2023-03-07T17:24:36.156Z,7.67
2023-03-07T17:27:09.086Z,7.70
2023-03-07T17:29:43.373Z,7.81
2023-03-07T17:32:12.713Z,7.51
2023-03-07T17:34:41.214Z,7.83
2023-03-07T17:37:14.990Z,7.77
2023-03-07T17:39:43.695Z,7.77
2023-03-07T17:42:15.848Z,7.67
2023-03-07T17:44:46.316Z,7.79
2023-03-07T17:47:18.771Z,7.81
2023-03-07T17:49:51.162Z,7.54
2023-03-07T17:52:27.979Z,7.86
2023-03-07T17:54:57.156Z,7.60
2023-03-07T17:57:28.447Z,7.51
2023-03-07T17:59:57.442Z,7.57
2023-03-07T18:02:29.733Z,7.70
2023-03-07T18:04:58.172Z,7.84
2023-03-07T18:07:28.408Z,7.74
2023-03-07T18:10:07.478Z,7.72
2023-03-07T18:12:39.129Z,7.82
2023-03-07T18:15:12.108Z,7.74
2023-03-07T18:17:48.262Z,7.79
2023-03-07T18:20:18.936Z,7.88
2023-03-07T18:22:48.864Z,7.75
2023-03-07T18:25:24.493Z,7.57
2023-03-07T18:27:55.495Z,7.76
2023-03-07T18:30:27.426Z,7.74
2023-03-07T18:32:56.772Z,7.83
2023-03-07T18:35:25.445Z,7.76
2023-03-07T18:37:55.952Z,7.78
2023-03-07T18:40:25.959Z,7.68
2023-03-07T18:43:01.903Z,7.64
2023-03-07T18:45:36.710Z,7.81
2023-03-07T18:48:05.008Z,7.72
2023-03-07T18:50:33.601Z,7.67
2023-03-07T18:53:15.650Z,7.85
2023-03-07T18:55:44.330Z,7.90
2023-03-07T18:58:16.377Z,7.90
2023-03-07T19:00:46.748Z,7.80
2023-03-07T19:03:16.356Z,8.01
2023-03-07T19:05:48.738Z,7.93
2023-03-07T19:08:20.294Z,7.95
2023-03-07T19:10:50.720Z,7.92
2023-03-07T19:13:18.906Z,7.60
2023-03-07T19:15:49.561Z,8.04
2023-03-07T19:18:25.163Z,7.83
2023-03-07T19:20:56.356Z,7.99
2023-03-07T19:23:33.658Z,7.90
2023-03-07T19:26:08.094Z,7.43
2023-03-07T19:28:39.775Z,7.97
2023-03-07T19:31:10.309Z,7.81
2023-03-07T19:33:41.017Z,7.88
2023-03-07T19:36:11.693Z,7.94
2023-03-07T19:38:42.394Z,7.86
2023-03-07T19:41:13.637Z,7.86
2023-03-07T19:43:45.611Z,7.94
2023-03-07T19:46:20.182Z,7.93
2023-03-07T19:48:54.054Z,8.10
2023-03-07T19:51:23.939Z,8.00
2023-03-07T19:53:57.752Z,7.98
2023-03-07T19:56:28.565Z,7.80
2023-03-07T19:59:00.824Z,7.89
2023-03-07T20:01:31.018Z,8.02
2023-03-07T20:04:00.653Z,7.77
2023-03-07T20:06:33.180Z,7.83
2023-03-07T20:09:06.283Z,7.70
2023-03-07T20:11:36.856Z,7.86
2023-03-07T20:14:09.006Z,7.82
2023-03-07T20:16:40.277Z,7.63
2023-03-07T20:19:13.119Z,7.85
2023-03-07T20:21:46.664Z,7.27
2023-03-07T20:24:16.348Z,7.05
2023-03-07T20:26:47.626Z,6.56
2023-03-07T20:29:16.425Z,6.77
2023-03-07T20:31:45.751Z,6.65
2023-03-07T20:34:15.018Z,6.35
2023-03-07T20:36:44.632Z,6.13
2023-03-07T20:39:15.350Z,5.67
2023-03-07T20:41:46.151Z,6.07
2023-03-07T20:44:17.697Z,6.11
2023-03-07T20:46:46.570Z,6.12
2023-03-07T20:49:17.353Z,6.07
2023-03-07T20:51:50.258Z,5.98
2023-03-07T20:54:21.453Z,6.05
2023-03-07T20:56:54.909Z,5.95
2023-03-07T20:59:23.634Z,5.87
2023-03-07T21:01:55.465Z,5.83
2023-03-07T21:04:24.116Z,5.69
2023-03-07T21:06:53.694Z,5.78
2023-03-07T21:09:22.115Z,5.87
2023-03-07T21:11:52.770Z,5.76
2023-03-07T21:14:26.127Z,5.71
2023-03-07T21:16:54.499Z,5.39
2023-03-07T21:19:29.765Z,5.76
2023-03-07T21:22:00.282Z,5.50
2023-03-07T21:24:29.886Z,5.40
2023-03-07T21:27:05.535Z,5.42
2023-03-07T21:29:39.003Z,5.32
2023-03-07T21:32:10.231Z,5.05
2023-03-07T21:34:42.320Z,5.02
2023-03-07T21:37:13.661Z,5.19
2023-03-07T21:39:41.855Z,5.03
2023-03-07T21:42:20.541Z,5.17
2023-03-07T21:44:49.138Z,5.13
2023-03-07T21:47:20.040Z,5.29
2023-03-07T21:49:49.289Z,5.12
2023-03-07T21:52:17.156Z,5.21
2023-03-07T21:54:45.968Z,5.32
2023-03-07T21:57:16.248Z,5.24
2023-03-07T21:59:44.139Z,5.03
2023-03-07T22:02:13.033Z,4.79
2023-03-07T22:04:41.380Z,5.10
2023-03-07T22:07:09.921Z,5.08
2023-03-07T22:09:39.752Z,5.10
2023-03-07T22:12:09.190Z,5.18
2023-03-07T22:14:43.797Z,5.13
2023-03-07T22:17:13.230Z,4.93
2023-03-07T22:19:46.460Z,4.96
2023-03-07T22:22:21.291Z,4.65
2023-03-07T22:24:53.210Z,4.77
2023-03-07T22:27:21.526Z,4.62
2023-03-07T22:29:51.846Z,4.41
2023-03-07T22:32:21.492Z,4.61
2023-03-07T22:35:12.253Z,4.77
2023-03-07T22:37:42.978Z,4.73
2023-03-07T22:40:13.820Z,4.49
2023-03-07T22:42:45.478Z,4.46
2023-03-07T22:45:19.841Z,4.77
2023-03-07T22:47:49.476Z,4.79
2023-03-07T22:50:20.423Z,4.61
2023-03-07T22:52:49.235Z,4.62
2023-03-07T22:55:18.707Z,4.57
2023-03-07T22:57:49.931Z,4.83
2023-03-07T23:00:22.654Z,4.85
2023-03-07T23:02:52.009Z,4.78
2023-03-07T23:05:20.092Z,4.68
2023-03-07T23:07:49.371Z,4.68
2023-03-07T23:10:18.913Z,4.74
2023-03-07T23:12:53.526Z,4.83
2023-03-07T23:15:25.427Z,4.61
2023-03-07T23:18:07.666Z,4.97
2023-03-07T23:20:39.141Z,4.93
2023-03-07T23:23:08.730Z,4.87
2023-03-07T23:25:43.040Z,4.80
2023-03-07T23:28:14.538Z,4.94
2023-03-07T23:30:45.317Z,4.88
2023-03-07T23:33:16.144Z,4.99
2023-03-07T23:35:44.595Z,4.69
2023-03-07T23:38:15.393Z,4.60
2023-03-07T23:40:47.365Z,4.61
2023-03-07T23:43:18.171Z,4.74
2023-03-07T23:45:47.590Z,4.65
2023-03-07T23:48:16.029Z,4.91
2023-03-07T23:50:45.138Z,4.74
2023-03-07T23:53:16.647Z,4.81
2023-03-07T23:55:46.052Z,4.71
2023-03-07T23:58:15.425Z,4.64
